Aérodrome :
LOGIN :

S'inscrire | Disclaimer

   EN    FR    IT 

 










Légende :    VFR   VFR Marginal   IFR   IFR Intensif   IFR Très Intensif
Visi : 
Plafond : 
>= 8 km
>= 3000ft
5 à 8 km
1000 à 3000 ft
1500m à 5 km
500 à 1000 ft
800 à 1500m
200 à 500 ft
< 800m
< 200 ft
Symboles :   Orages  Brouillard  Fortes neiges  Fortes précipitations  Vent > 20 kt
SIGMETs :   Divers  Orages  Givrage  Turbulence  Onde Orograph.  Cendres Volcan.






- Altitude de l'aérodrome : 74 ft
- Code IATA : EIN


EHEH - Eindhoven

DERNIER METAR :
  • 170404Z AUTO 18006KT 150V210 9999 FEW013 FEW015CB SCT017 OVC031 10/09 Q1000 WHT

METARs EXPIRÉS :
  • 170355Z AUTO 18006KT 9999 FEW012 FEW015CB BKN027 OVC033 10/09 Q1000 BLU
  • 170329Z AUTO 18006KT 9999 BKN016 OVC051 10/09 Q1000 WHT
  • 170307Z AUTO 18006KT 9999 FEW019 BKN027 OVC035 10/09 Q1000 BLU
  • 170256Z AUTO 17006KT 9999 BKN018 BKN029 BKN035 10/09 Q1000 WHT
  • 170255Z AUTO 17006KT 9999 SCT018 BKN048 OVC054 10/09 Q1000 REDZ WHT
  • 170225Z AUTO 18007KT 160V220 9999 DZ FEW039 BKN051 OVC056 10/09 Q1000 BLU
  • 170213Z AUTO 19006KT 9999 FEW019 BKN044 OVC055 10/09 Q1000 BLU
  • 170155Z AUTO 18006KT 9999 SCT045 BKN050 BKN085 10/09 Q1000 BLU
  • 170125Z AUTO 18006KT 9999 FEW043 BKN060 OVC150 10/09 Q1000 BLU

TAF TAF EHEH
Valide du 17 à 00h jusqu'au 18 à 06h UTC


162333Z 1700/1806 16006KT 9999 SCT025 BKN045
TEMPO 1700/1715 21008G18KT 4000 -SHRA RA SCT012 SCT020CB BKN030
PROB40
TEMPO 1708/1714 24012G25KT 3000 SHRA TSRAGR SCT008 SCT017CB BKN022
BECMG 1712/1715 28012KT BKN020
BECMG 1721/1723 22005KT
TEMPO 1723/1805 4500 SHRA RA BKN018 SCT020CB
PROB40 1801/1806 SCT008 BKN012



MET'MAP, la Météo Aéronautique d'un coup d'oeil ! - Copyright ORBIFLY Décembre 2007 - Disclaimer

ORBIFLY MET'MAP TEAM :

Programmation & Développement : Alexandra Zaïnal
Sur une idée originale de : Baudouin d'Aumeries
Assistance à la programmation : Marc-Olivier Méhu
Soutien technique & logistique : Manuel Goepfert

Contact : metmap@orbifly.com




SOURCES & CREDITS :

   NOAA